Black Creek, North Carolina
Current Conditions -  °F | °C
As of 5:15 PM on Sunday 25 Jan 2015 (Local Time) from KGWW Reporting Station
Clear Clear  
Wind Chill: 51°   Ceiling: Unl
Heat Index: 51°   Visibility: 10mi
Dew Point: 35°   Wind: 5mph
Humidity: 53%   Direction: 150°SSE
Pressure: 29.85"   Gusts: NA
Location:  35.64°N, 77.93°W
Report Text: KGWW 252215Z AUTO 15004KT 10SM CLR 11/01 A2985 RMK AO2 T01070014
Loading
Personal Weather Stations






























Interactive Weather Map New forecast layout! Learn more

10-Day Weather Forecast

Advertisements
Track Severe Weather on mobile